Rancho Bernardo, California
Current Conditions -  °F | °C
As of 7:53 AM on Friday 31 Oct 2014 (Local Time) from KRNM Reporting Station
Overcast Overcast  
Wind Chill: 62°   Ceiling: 2200
Heat Index: 62°   Visibility: 10mi
Dew Point: 54°   Wind: 3mph
Humidity: 75%   Direction: 250°WSW
Pressure: 29.98"   Gusts: NA
Location:  33.0024°N, 117.071°W
Report Text: KRNM 311453Z AUTO 25003KT 10SM FEW016 OVC022 17/12 A2998 RMK AO2 SLP145 T01670122 TSNO $
Loading
Personal Weather Stations






























Interactive Weather Map
Tropical Storm Tracking
New forecast layout! Learn more

10-Day Weather Forecast

Advertisements
Track Severe Weather on mobile